createdAt,value
2017-12-02T00:00:35.724Z,14.52
2017-12-02T00:03:01.976Z,15.95
2017-12-02T00:05:28.216Z,14.82
2017-12-02T00:07:54.454Z,15.77
2017-12-02T00:10:20.702Z,14.25
2017-12-02T00:12:46.975Z,15.60
2017-12-02T00:15:13.168Z,14.95
2017-12-02T00:17:39.773Z,15.77
2017-12-02T00:20:06.036Z,15.85
2017-12-02T00:22:32.649Z,14.43
2017-12-02T00:24:58.882Z,16.45
2017-12-02T00:27:25.149Z,15.85
2017-12-02T00:29:51.398Z,16.60
2017-12-02T00:32:17.662Z,16.30
2017-12-02T00:34:43.942Z,16.80
2017-12-02T00:37:10.229Z,16.95
2017-12-02T00:39:36.477Z,17.42
2017-12-02T00:42:02.764Z,16.35
2017-12-02T00:44:28.987Z,17.05
2017-12-02T00:46:55.218Z,16.80
2017-12-02T00:49:21.453Z,17.33
2017-12-02T00:51:47.676Z,14.80
2017-12-02T00:54:13.897Z,18.20
2017-12-02T00:56:40.105Z,18.75
2017-12-02T00:59:06.327Z,17.42
2017-12-02T01:01:32.540Z,18.48
2017-12-02T01:03:58.773Z,18.05
2017-12-02T01:06:25.023Z,19.50
2017-12-02T01:08:51.221Z,18.15
2017-12-02T01:11:17.477Z,20.25
2017-12-02T01:13:43.736Z,19.12
2017-12-02T01:16:10.020Z,18.60
2017-12-02T01:18:36.232Z,18.62
2017-12-02T01:21:02.848Z,19.02
2017-12-02T01:23:29.056Z,19.08
2017-12-02T01:25:55.295Z,19.90
2017-12-02T01:28:21.501Z,20.10
2017-12-02T01:30:47.730Z,19.98
2017-12-02T01:33:13.965Z,20.27
2017-12-02T01:35:40.206Z,18.83
2017-12-02T01:38:06.424Z,20.15
2017-12-02T01:40:32.720Z,20.92
2017-12-02T01:42:58.933Z,20.02
2017-12-02T01:45:25.134Z,19.62
2017-12-02T01:47:51.349Z,20.60
2017-12-02T01:50:17.580Z,20.65
2017-12-02T01:52:43.822Z,20.42
2017-12-02T01:55:10.390Z,20.70
2017-12-02T01:57:36.622Z,22.92
2017-12-02T02:00:02.882Z,21.52
2017-12-02T02:02:29.130Z,20.85
2017-12-02T02:04:55.300Z,21.73
2017-12-02T02:07:21.541Z,21.15
2017-12-02T02:09:47.773Z,21.92
2017-12-02T02:12:13.967Z,21.25
2017-12-02T02:14:40.581Z,22.83
2017-12-02T02:17:06.781Z,23.12
2017-12-02T02:19:33.008Z,21.70
2017-12-02T02:21:59.246Z,24.00
2017-12-02T02:24:25.488Z,20.40
2017-12-02T02:26:51.721Z,22.02
2017-12-02T02:29:17.907Z,22.15
2017-12-02T02:31:44.150Z,23.15
2017-12-02T02:34:10.345Z,24.40
2017-12-02T02:36:36.545Z,22.23
2017-12-02T02:39:03.201Z,24.30
2017-12-02T02:41:29.422Z,22.15
2017-12-02T02:43:55.646Z,23.50
2017-12-02T02:46:22.233Z,23.73
2017-12-02T02:48:48.443Z,23.58
2017-12-02T02:51:14.666Z,20.27
2017-12-02T02:53:40.919Z,23.42
2017-12-02T02:56:07.117Z,20.37
2017-12-02T02:58:33.340Z,21.77
2017-12-02T03:00:59.571Z,22.75
2017-12-02T03:03:25.773Z,22.30
2017-12-02T03:05:52.009Z,21.90
2017-12-02T03:08:18.245Z,22.58
2017-12-02T03:10:44.520Z,21.55
2017-12-02T03:13:10.746Z,22.42
2017-12-02T03:15:37.000Z,23.38
2017-12-02T03:18:03.268Z,22.30
2017-12-02T03:20:29.520Z,21.80
2017-12-02T03:22:55.737Z,22.15
2017-12-02T03:25:21.968Z,20.80
2017-12-02T03:27:48.188Z,21.67
2017-12-02T03:30:14.482Z,21.60
2017-12-02T03:32:40.738Z,23.12
2017-12-02T03:35:06.987Z,23.45
2017-12-02T03:37:33.250Z,20.75
2017-12-02T03:39:59.494Z,24.08
2017-12-02T03:42:26.774Z,24.27
2017-12-02T03:44:52.993Z,21.23
2017-12-02T03:47:19.233Z,21.65
2017-12-02T03:49:45.483Z,21.15
2017-12-02T03:52:11.736Z,21.05
2017-12-02T03:54:37.932Z,22.02
2017-12-02T03:57:04.182Z,22.67
2017-12-02T03:59:30.433Z,23.52
2017-12-02T04:01:57.039Z,21.65
2017-12-02T04:04:23.305Z,23.33
2017-12-02T04:06:49.941Z,21.12
2017-12-02T04:09:16.193Z,21.10
2017-12-02T04:11:42.445Z,23.35
2017-12-02T04:14:08.695Z,20.55
2017-12-02T04:16:34.959Z,21.73
2017-12-02T04:19:01.629Z,22.15
2017-12-02T04:21:27.924Z,22.75
2017-12-02T04:23:54.186Z,21.17
2017-12-02T04:26:20.454Z,22.70
2017-12-02T04:28:46.707Z,22.00
2017-12-02T04:31:13.350Z,22.35
2017-12-02T04:33:39.950Z,21.98
2017-12-02T04:36:06.197Z,23.00
2017-12-02T04:38:32.455Z,23.02
2017-12-02T04:40:59.098Z,22.77
2017-12-02T04:43:25.349Z,22.80
2017-12-02T04:45:51.573Z,21.90
2017-12-02T04:48:17.804Z,22.85
2017-12-02T04:50:44.028Z,22.23
2017-12-02T04:53:10.291Z,24.23
2017-12-02T04:55:36.548Z,22.37
2017-12-02T04:58:02.775Z,24.65
2017-12-02T05:00:29.027Z,23.15
2017-12-02T05:02:55.236Z,22.50
2017-12-02T05:05:21.503Z,21.80
2017-12-02T05:07:47.801Z,24.08
2017-12-02T05:10:14.385Z,24.17
2017-12-02T05:12:40.633Z,23.70
2017-12-02T05:15:06.881Z,22.60
2017-12-02T05:17:33.523Z,22.33
2017-12-02T05:20:00.124Z,23.42
2017-12-02T05:22:26.352Z,22.62
2017-12-02T05:24:52.613Z,22.08
2017-12-02T05:27:19.248Z,21.87
2017-12-02T05:29:45.481Z,22.27
2017-12-02T05:32:12.095Z,22.13
2017-12-02T05:34:38.316Z,21.45
2017-12-02T05:37:04.546Z,23.60
2017-12-02T05:39:30.843Z,22.42
2017-12-02T05:41:57.061Z,21.80
2017-12-02T05:44:23.306Z,24.70
2017-12-02T05:46:49.540Z,21.10
2017-12-02T05:49:15.794Z,23.20
2017-12-02T05:51:42.008Z,21.80
2017-12-02T05:54:08.275Z,21.50
2017-12-02T05:56:34.506Z,22.70
2017-12-02T05:59:00.765Z,22.55
2017-12-02T06:01:26.990Z,22.45
2017-12-02T06:03:53.276Z,23.15
2017-12-02T06:06:19.563Z,22.48
2017-12-02T06:08:45.855Z,23.70
2017-12-02T06:11:12.839Z,23.73
2017-12-02T06:13:39.105Z,23.48
2017-12-02T06:16:05.369Z,21.85
2017-12-02T06:18:31.655Z,22.40
2017-12-02T06:20:57.957Z,23.30
2017-12-02T06:23:24.195Z,22.25
2017-12-02T06:25:50.415Z,23.90
2017-12-02T06:28:16.639Z,22.17
2017-12-02T06:30:42.890Z,23.70
2017-12-02T06:33:09.445Z,24.58
2017-12-02T06:35:35.718Z,24.50
2017-12-02T06:38:01.961Z,24.42
2017-12-02T06:40:28.241Z,24.15
2017-12-02T06:42:54.853Z,24.98
2017-12-02T06:45:21.145Z,25.23
2017-12-02T06:47:47.441Z,22.42
2017-12-02T06:50:14.379Z,21.45
2017-12-02T06:52:40.625Z,21.77
2017-12-02T06:55:07.240Z,21.67
2017-12-02T06:57:33.496Z,20.48
2017-12-02T07:00:00.181Z,21.12
2017-12-02T07:02:26.443Z,20.60
2017-12-02T07:04:53.090Z,20.73
2017-12-02T07:07:19.821Z,18.80
2017-12-02T07:09:46.114Z,19.62
2017-12-02T07:12:12.373Z,20.10
2017-12-02T07:14:38.741Z,20.48
2017-12-02T07:17:05.008Z,19.98
2017-12-02T07:19:31.275Z,21.80
2017-12-02T07:21:57.942Z,21.67
2017-12-02T07:24:24.206Z,21.37
2017-12-02T07:26:50.498Z,20.50
2017-12-02T07:29:16.762Z,20.20
2017-12-02T07:31:43.010Z,23.75
2017-12-02T07:34:09.264Z,22.62
2017-12-02T07:36:35.911Z,21.52
2017-12-02T07:39:02.183Z,22.37
2017-12-02T07:41:28.423Z,21.30
2017-12-02T07:43:54.701Z,20.85
2017-12-02T07:46:20.971Z,21.23
2017-12-02T07:48:47.221Z,21.77
2017-12-02T07:51:13.571Z,21.02
2017-12-02T07:53:39.815Z,22.45
2017-12-02T07:56:06.106Z,21.02
2017-12-02T07:58:32.986Z,20.62
2017-12-02T08:00:59.212Z,19.92
2017-12-02T08:03:25.492Z,20.10
2017-12-02T08:05:51.740Z,19.33
2017-12-02T08:08:18.067Z,20.92
2017-12-02T08:10:44.369Z,18.85
2017-12-02T08:13:13.429Z,21.98
2017-12-02T08:15:39.702Z,19.80
2017-12-02T08:18:05.930Z,20.27
2017-12-02T08:20:32.192Z,21.87
2017-12-02T08:22:58.479Z,18.67
2017-12-02T08:25:24.733Z,18.73
2017-12-02T08:27:50.963Z,17.73
2017-12-02T08:30:17.224Z,18.85
2017-12-02T08:32:43.874Z,18.30
2017-12-02T08:35:10.091Z,18.65
2017-12-02T08:37:36.354Z,20.58
2017-12-02T08:40:02.616Z,18.45
2017-12-02T08:42:28.851Z,20.55
2017-12-02T08:44:55.090Z,21.25
2017-12-02T08:47:21.758Z,21.20
2017-12-02T08:49:48.027Z,20.92
2017-12-02T08:52:14.249Z,21.15
2017-12-02T08:54:40.505Z,18.70
2017-12-02T08:57:07.118Z,17.35
2017-12-02T08:59:33.406Z,16.83
2017-12-02T09:01:59.673Z,14.68
2017-12-02T09:04:26.503Z,13.43
2017-12-02T09:06:52.756Z,15.95
2017-12-02T09:09:19.297Z,14.60
2017-12-02T09:11:45.555Z,14.75
2017-12-02T09:14:11.840Z,17.25
2017-12-02T09:16:38.103Z,15.35
2017-12-02T09:19:04.381Z,16.95
2017-12-02T09:21:30.656Z,16.80
2017-12-02T09:23:57.312Z,15.23
2017-12-02T09:26:23.589Z,15.07
2017-12-02T09:28:49.837Z,16.08
2017-12-02T09:31:16.162Z,16.65
2017-12-02T09:33:42.408Z,15.35
2017-12-02T09:36:08.705Z,14.68
2017-12-02T09:38:34.959Z,17.92
2017-12-02T09:41:01.637Z,14.07
2017-12-02T09:43:27.949Z,13.60
2017-12-02T09:45:54.230Z,12.95
2017-12-02T09:48:20.854Z,15.15
2017-12-02T09:50:47.117Z,12.85
2017-12-02T09:55:45.225Z,15.35
2017-12-02T09:58:11.525Z,16.52
2017-12-02T10:00:37.765Z,17.10
2017-12-02T10:03:04.403Z,18.20
2017-12-02T10:05:30.689Z,17.40
2017-12-02T10:07:56.973Z,19.00
2017-12-02T10:10:23.233Z,19.10
2017-12-02T10:12:49.520Z,18.52
2017-12-02T10:15:16.189Z,16.20
2017-12-02T10:17:42.440Z,15.32
2017-12-02T10:20:08.736Z,15.15
2017-12-02T10:22:35.059Z,14.87
2017-12-02T10:25:01.717Z,17.73
2017-12-02T10:27:27.971Z,17.52
2017-12-02T10:29:54.241Z,16.55
2017-12-02T10:32:20.496Z,16.10
2017-12-02T10:34:46.813Z,16.33
2017-12-02T10:37:13.186Z,16.42
2017-12-02T10:39:39.555Z,14.32
2017-12-02T10:42:05.853Z,13.90
2017-12-02T10:44:32.131Z,14.98
2017-12-02T10:46:58.820Z,14.63
2017-12-02T10:49:25.146Z,14.93
2017-12-02T10:51:51.430Z,15.70
2017-12-02T10:54:18.068Z,15.15
2017-12-02T10:56:44.696Z,14.73
2017-12-02T10:59:10.952Z,16.33
2017-12-02T11:01:37.197Z,15.57
2017-12-02T11:04:03.536Z,14.75
2017-12-02T11:06:29.855Z,14.38
2017-12-02T11:08:56.133Z,15.65
2017-12-02T11:11:22.382Z,14.20
2017-12-02T11:13:48.677Z,13.50
2017-12-02T11:16:14.969Z,14.75
2017-12-02T11:18:41.184Z,12.77
2017-12-02T11:21:07.448Z,15.27
2017-12-02T11:23:33.701Z,16.67
2017-12-02T11:25:59.982Z,14.73
2017-12-02T11:28:26.226Z,14.48
2017-12-02T11:30:52.486Z,15.32
2017-12-02T11:33:18.719Z,14.90
2017-12-02T11:35:45.001Z,15.13
2017-12-02T11:38:11.269Z,15.13
2017-12-02T11:40:37.523Z,14.30
2017-12-02T11:43:03.756Z,12.10
2017-12-02T11:45:30.016Z,12.68
2017-12-02T11:47:56.246Z,14.13
2017-12-02T11:50:22.494Z,13.40
2017-12-02T11:52:48.776Z,14.75
2017-12-02T11:55:15.032Z,13.23
2017-12-02T11:57:41.287Z,14.25
2017-12-02T12:00:07.508Z,13.52
2017-12-02T12:02:34.061Z,13.75
2017-12-02T12:05:00.303Z,14.75
2017-12-02T12:07:26.519Z,12.88
2017-12-02T12:09:52.817Z,13.32
2017-12-02T12:12:19.106Z,12.30
2017-12-02T12:14:45.354Z,13.57
2017-12-02T12:17:11.596Z,13.80
2017-12-02T12:19:37.919Z,15.02
2017-12-02T12:22:04.191Z,15.43
2017-12-02T12:24:30.448Z,13.52
2017-12-02T12:26:57.042Z,15.55
2017-12-02T12:29:23.282Z,13.30
2017-12-02T12:31:49.533Z,14.15
2017-12-02T12:34:16.142Z,16.42
2017-12-02T12:36:42.438Z,17.52
2017-12-02T12:39:09.021Z,16.25
2017-12-02T12:41:35.284Z,16.92
2017-12-02T12:44:01.516Z,17.52
2017-12-02T12:46:27.794Z,17.77
2017-12-02T12:48:54.021Z,18.05
2017-12-02T12:51:20.287Z,17.87
2017-12-02T12:53:46.886Z,19.52
2017-12-02T12:56:13.153Z,19.12
2017-12-02T12:58:39.795Z,19.98
2017-12-02T13:01:06.405Z,17.90
2017-12-02T13:03:32.695Z,18.58
2017-12-02T13:05:58.935Z,17.92
2017-12-02T13:08:25.196Z,16.45
2017-12-02T13:10:51.461Z,18.45
2017-12-02T13:13:17.713Z,21.85
2017-12-02T13:15:43.932Z,23.85
2017-12-02T13:18:10.268Z,20.92
2017-12-02T13:20:36.522Z,18.50
2017-12-02T13:23:02.793Z,16.73
2017-12-02T13:25:29.082Z,16.45
2017-12-02T13:27:55.308Z,17.80
2017-12-02T13:30:21.525Z,17.73
2017-12-02T13:32:47.804Z,18.27
2017-12-02T13:35:14.401Z,15.48
2017-12-02T13:37:40.677Z,14.95
2017-12-02T13:40:06.924Z,15.55
2017-12-02T13:42:33.128Z,16.27
2017-12-02T13:44:59.450Z,16.17
2017-12-02T13:47:25.679Z,18.20
2017-12-02T13:49:51.924Z,19.15
2017-12-02T13:52:18.169Z,19.00
2017-12-02T13:54:44.445Z,18.75
2017-12-02T13:57:11.113Z,19.02
2017-12-02T13:59:37.368Z,17.83
2017-12-02T14:02:03.726Z,19.37
2017-12-02T14:04:29.942Z,19.00
2017-12-02T14:06:56.165Z,17.33
2017-12-02T14:09:22.462Z,19.50
2017-12-02T14:11:48.714Z,17.58
2017-12-02T14:14:14.985Z,16.87
2017-12-02T14:16:41.208Z,17.52
2017-12-02T14:19:07.490Z,18.37
2017-12-02T14:21:33.733Z,18.05
2017-12-02T14:23:59.991Z,18.37
2017-12-02T14:26:26.233Z,17.27
2017-12-02T14:28:52.474Z,18.02
2017-12-02T14:31:19.133Z,17.77
2017-12-02T14:33:46.205Z,18.33
2017-12-02T14:36:13.039Z,17.17
2017-12-02T14:38:39.279Z,17.15
2017-12-02T14:41:05.561Z,18.30
2017-12-02T14:46:03.616Z,16.80
2017-12-02T14:48:30.859Z,17.70
2017-12-02T14:50:57.114Z,18.33
2017-12-02T14:53:23.401Z,18.40
2017-12-02T14:55:49.616Z,17.30
2017-12-02T14:58:15.854Z,19.15
2017-12-02T15:00:42.117Z,20.65
2017-12-02T15:03:08.407Z,18.25
2017-12-02T15:05:34.700Z,18.83
2017-12-02T15:08:01.307Z,18.00
2017-12-02T15:10:27.561Z,18.35
2017-12-02T15:12:54.205Z,17.70
2017-12-02T15:15:20.845Z,18.75
2017-12-02T15:17:47.594Z,17.98
2017-12-02T15:20:14.182Z,19.02
2017-12-02T15:22:40.564Z,17.62
2017-12-02T15:25:08.754Z,20.10
2017-12-02T15:27:34.992Z,18.02
2017-12-02T15:30:01.315Z,19.92
2017-12-02T15:32:27.531Z,19.10
2017-12-02T15:34:54.799Z,20.98
2017-12-02T15:37:21.166Z,20.35
2017-12-02T15:39:47.475Z,19.80
2017-12-02T15:42:13.756Z,20.90
2017-12-02T15:44:40.105Z,21.20
2017-12-02T15:47:06.366Z,20.73
2017-12-02T15:49:32.649Z,19.77
2017-12-02T15:51:58.973Z,19.52
2017-12-02T15:54:25.650Z,22.13
2017-12-02T15:56:51.977Z,21.52
2017-12-02T15:59:18.280Z,21.85
2017-12-02T16:01:44.561Z,20.83
2017-12-02T16:04:10.847Z,21.50
2017-12-02T16:06:37.151Z,19.52
2017-12-02T16:09:03.848Z,19.73
2017-12-02T16:11:30.121Z,20.17
2017-12-02T16:13:56.398Z,19.52
2017-12-02T16:16:22.733Z,23.40
2017-12-02T16:18:49.027Z,25.83
2017-12-02T16:21:15.293Z,29.83
2017-12-02T16:23:41.574Z,25.95
2017-12-02T16:26:08.278Z,21.35
2017-12-02T16:28:34.599Z,21.37
2017-12-02T16:31:00.871Z,24.55
2017-12-02T16:33:27.580Z,26.87
2017-12-02T16:35:53.871Z,22.05
2017-12-02T16:38:20.206Z,25.37
2017-12-02T16:40:46.555Z,30.52
2017-12-02T16:43:12.866Z,29.42
2017-12-02T16:45:39.171Z,30.30
2017-12-02T16:48:05.478Z,23.62
2017-12-02T16:50:32.119Z,24.80
2017-12-02T16:52:58.795Z,22.50
2017-12-02T16:55:25.131Z,25.85
2017-12-02T16:57:51.426Z,21.27
2017-12-02T17:00:18.109Z,23.87
2017-12-02T17:02:44.419Z,22.25
2017-12-02T17:05:10.711Z,23.12
2017-12-02T17:07:37.356Z,22.20
2017-12-02T17:10:04.042Z,24.15
2017-12-02T17:12:30.324Z,22.15
2017-12-02T17:14:56.612Z,22.67
2017-12-02T17:17:22.899Z,21.98
2017-12-02T17:19:49.177Z,23.35
2017-12-02T17:22:15.438Z,21.37
2017-12-02T17:24:41.709Z,19.12
2017-12-02T17:27:07.972Z,31.15
2017-12-02T17:29:34.260Z,21.08
2017-12-02T17:32:00.542Z,22.75
2017-12-02T17:34:27.838Z,22.10
2017-12-02T17:36:54.083Z,26.17
2017-12-02T17:39:20.348Z,23.00
2017-12-02T17:41:46.678Z,26.33
2017-12-02T17:44:12.971Z,22.92
2017-12-02T17:46:39.261Z,21.58
2017-12-02T17:49:05.949Z,31.75
2017-12-02T17:51:32.197Z,27.08
2017-12-02T17:53:58.498Z,22.10
2017-12-02T17:56:24.720Z,45.30
2017-12-02T17:58:50.977Z,23.60
2017-12-02T18:01:17.257Z,23.25
2017-12-02T18:03:43.521Z,26.73
2017-12-02T18:06:09.849Z,30.08
2017-12-02T18:08:36.090Z,28.62
2017-12-02T18:11:02.413Z,25.05
2017-12-02T18:13:28.657Z,31.92
2017-12-02T18:15:54.895Z,35.53
2017-12-02T18:18:21.185Z,21.73
2017-12-02T18:20:47.377Z,25.05
2017-12-02T18:23:13.997Z,24.30
2017-12-02T18:25:40.637Z,25.02
2017-12-02T18:28:06.857Z,24.80
2017-12-02T18:30:33.136Z,22.90
2017-12-02T18:32:59.376Z,22.10
2017-12-02T18:35:25.643Z,21.95
2017-12-02T18:37:51.892Z,24.33
2017-12-02T18:40:18.537Z,22.13
2017-12-02T18:42:44.832Z,23.17
2017-12-02T18:45:11.056Z,22.48
2017-12-02T18:47:37.291Z,23.05
2017-12-02T18:50:03.540Z,22.02
2017-12-02T18:52:29.764Z,22.92
2017-12-02T18:54:55.999Z,23.05
2017-12-02T18:57:22.240Z,22.60
2017-12-02T18:59:48.526Z,24.90
2017-12-02T19:02:14.748Z,21.25
2017-12-02T19:04:41.005Z,20.23
2017-12-02T19:07:07.673Z,21.98
2017-12-02T19:09:33.931Z,23.95
2017-12-02T19:12:00.210Z,22.58
2017-12-02T19:14:26.476Z,22.30
2017-12-02T19:16:52.723Z,22.70
2017-12-02T19:19:18.979Z,21.92
2017-12-02T19:21:45.258Z,22.67
2017-12-02T19:24:11.536Z,21.73
2017-12-02T19:26:37.832Z,22.33
2017-12-02T19:29:04.077Z,23.12
2017-12-02T19:31:30.324Z,22.73
2017-12-02T19:33:56.961Z,22.42
2017-12-02T19:36:23.256Z,22.85
2017-12-02T19:38:49.454Z,22.48
2017-12-02T19:41:15.714Z,23.67
2017-12-02T19:43:42.003Z,23.23
2017-12-02T19:46:08.275Z,21.50
2017-12-02T19:48:34.519Z,24.85
2017-12-02T19:51:00.827Z,22.55
2017-12-02T19:53:27.139Z,29.40
2017-12-02T19:55:53.431Z,28.27
2017-12-02T19:58:20.106Z,24.37
2017-12-02T20:00:46.427Z,22.55
2017-12-02T20:03:12.725Z,20.40
2017-12-02T20:05:39.386Z,20.65
2017-12-02T20:08:05.620Z,17.60
2017-12-02T20:10:32.363Z,20.05
2017-12-02T20:12:58.689Z,21.48
2017-12-02T20:15:24.947Z,23.38
2017-12-02T20:17:51.251Z,23.58
2017-12-02T20:20:17.541Z,25.50
2017-12-02T20:22:43.785Z,21.25
2017-12-02T20:25:10.509Z,23.38
2017-12-02T20:27:36.733Z,21.75
2017-12-02T20:30:03.077Z,23.65
2017-12-02T20:32:29.720Z,21.67
2017-12-02T20:34:56.405Z,19.30
2017-12-02T20:37:22.643Z,20.65
2017-12-02T20:39:48.911Z,20.25
2017-12-02T20:42:15.537Z,21.37
2017-12-02T20:44:42.429Z,21.27
2017-12-02T20:47:08.736Z,19.80
2017-12-02T20:49:35.001Z,20.08
2017-12-02T20:52:01.284Z,19.17
2017-12-02T20:54:27.998Z,18.73
2017-12-02T20:56:54.225Z,16.50
2017-12-02T20:59:20.486Z,15.68
2017-12-02T21:01:47.075Z,19.37
2017-12-02T21:04:13.370Z,19.65
2017-12-02T21:06:39.617Z,21.10
2017-12-02T21:09:05.930Z,20.08
2017-12-02T21:11:32.197Z,21.25
2017-12-02T21:13:58.403Z,23.62
2017-12-02T21:16:24.642Z,19.90
2017-12-02T21:18:50.898Z,20.73
2017-12-02T21:21:17.182Z,19.77
2017-12-02T21:23:43.508Z,18.02
2017-12-02T21:26:09.756Z,16.15
2017-12-02T21:28:36.035Z,16.10
2017-12-02T21:31:03.052Z,14.20
2017-12-02T21:33:29.290Z,12.43
2017-12-02T21:35:55.549Z,15.68
2017-12-02T21:38:21.823Z,13.75
2017-12-02T21:40:48.141Z,14.52
2017-12-02T21:43:14.444Z,12.90
2017-12-02T21:45:41.084Z,14.80
2017-12-02T21:48:07.385Z,14.65
2017-12-02T21:50:33.616Z,14.23
2017-12-02T21:52:59.958Z,14.93
2017-12-02T21:55:26.579Z,15.38
2017-12-02T21:57:52.908Z,15.13
2017-12-02T22:00:19.217Z,14.35
2017-12-02T22:02:45.470Z,14.63
2017-12-02T22:05:12.121Z,13.35
2017-12-02T22:07:38.830Z,15.57
2017-12-02T22:10:05.221Z,13.52
2017-12-02T22:12:31.555Z,14.82
2017-12-02T22:14:57.883Z,14.57
2017-12-02T22:17:24.279Z,14.35
2017-12-02T22:19:50.536Z,16.17
2017-12-02T22:22:16.873Z,14.55
2017-12-02T22:24:44.086Z,13.38
2017-12-02T22:27:10.394Z,14.02
2017-12-02T22:29:36.652Z,14.70
2017-12-02T22:32:03.312Z,15.05
2017-12-02T22:34:29.615Z,15.95
2017-12-02T22:36:55.934Z,15.70
2017-12-02T22:39:22.672Z,15.68
2017-12-02T22:41:49.000Z,13.98
2017-12-02T22:44:15.653Z,13.95
2017-12-02T22:46:42.326Z,13.60
2017-12-02T22:49:08.624Z,12.80
2017-12-02T22:51:34.921Z,14.15
2017-12-02T22:54:01.207Z,15.00
2017-12-02T22:56:27.510Z,14.50
2017-12-02T22:58:53.772Z,14.45
2017-12-02T23:01:20.123Z,15.07
2017-12-02T23:03:46.442Z,14.20
2017-12-02T23:06:12.773Z,15.50
2017-12-02T23:08:39.029Z,14.32
2017-12-02T23:11:05.339Z,14.65
2017-12-02T23:13:31.572Z,14.70
2017-12-02T23:15:57.847Z,13.52
2017-12-02T23:18:24.464Z,15.13
2017-12-02T23:20:50.710Z,13.55
2017-12-02T23:23:17.354Z,13.48
2017-12-02T23:25:43.982Z,14.18
2017-12-02T23:28:10.609Z,13.57
2017-12-02T23:30:36.841Z,12.57
2017-12-02T23:33:03.432Z,11.02
2017-12-02T23:35:29.690Z,13.25
2017-12-02T23:37:55.940Z,13.00
2017-12-02T23:40:22.568Z,15.25
2017-12-02T23:42:48.847Z,11.82
2017-12-02T23:45:15.097Z,13.98
2017-12-02T23:47:41.376Z,14.10
2017-12-02T23:50:07.620Z,13.55
2017-12-02T23:52:33.881Z,13.00
2017-12-02T23:55:00.123Z,13.00
2017-12-02T23:57:26.418Z,12.98
2017-12-02T23:59:52.673Z,13.75
